Terminal Aerodrome Forecast
Issued by NWS

Home | Current Version | Previous Version | Graphics & Text | Print | Product List | Glossary On
Versions: 1 2 3 4 5 6 7 8 9 10 11 12 13 14 15 16 17 18
000
FTUS43 KABR 291511 AAA
TAFMBG
TAF AMD
KMBG 291511Z 2915/3012 02021G25KT P6SM OVC015
     FM291900 36016G24KT P6SM OVC050
     FM292100 36012G18KT P6SM SKC
     FM300000 02009KT P6SM SKC=

USA.gov is the U.S. government's official web portal to all federal, state and local government web resources and services.